Portada
METAR-TAF:

METAR-TAF

Aeroports :

Aeroport Internacional de Tozeur

Tozeur, Tunísia

latitud: 33-55N, longitud: 008-06E, altitud: 87 m

Observació

L'informe es va fer fa 34 minuts, a les 02:00 UTC
Vent 17 kt del Est
Temperatura 27°C
Humitat 32%
Pressió 1013 hPa

METAR: DTTZ 160200Z AUTO 10017KT NCD 27/09 Q1013

Hora: 03:34 (02:34 UTC)

Pronòstic

L'informe es va fer fa 3 hores i 34 minuts, a les 23:00 UTC
Pronòstic vàlid del 16 a les 00 UTC al 16 a les 24 UTC
Vent 20 kt del Est
Visibilitat: 5000 m
Evolucionant progressivament
l' 16 a les 04 UTC al 16 a les 06 UTC
Vent 10 kt del Est/Nord-Est
Evolucionant progressivament
l' 16 a les 13 UTC al 16 a les 15 UTC
Vent 10 kt del Sud-Est
Evolucionant progressivament
l' 16 a les 19 UTC al 16 a les 21 UTC
Vent 20 kt del Est

TAF: DTTZ 152300Z 1600/1624 09020KT 5000 NSC BECMG 1604/1606 07010KT BECMG 1613/1615 14010KT BECMG 1619/1621 09020KT

Observacions i pronòstics meteorològics de més de 4000 aeroports (METAR i TAF).

Les estacions disponibles són els punts grocs i vermells al mapa.

Posi el ratolí al punt desitjat per veure el nom de l'estació.

Feu clic per veure les observacions i els pronòstics meteorològics.

Per canviar el mapa: feu clic els botons verds amb una creu de color negre per apropar; al botó verd amb un guió per allunyar la imatge; o en les fletxes verdes per a mapes adjacents.


METAR-TAF: